createdAt,value
2018-04-01T00:01:00.111Z,62.25
2018-04-01T00:03:27.258Z,64.12
2018-04-01T00:05:54.445Z,60.40
2018-04-01T00:08:21.596Z,64.43
2018-04-01T00:10:48.857Z,54.08
2018-04-01T00:13:16.490Z,69.35
2018-04-01T00:15:43.777Z,59.05
2018-04-01T00:18:10.963Z,54.33
2018-04-01T00:20:38.109Z,63.70
2018-04-01T00:23:06.167Z,55.20
2018-04-01T00:25:34.085Z,59.58
2018-04-01T00:28:01.274Z,62.62
2018-04-01T00:30:28.526Z,58.42
2018-04-01T00:32:55.782Z,61.83
2018-04-01T00:35:22.962Z,62.25
2018-04-01T00:37:50.982Z,64.45
2018-04-01T00:40:18.338Z,59.50
2018-04-01T00:42:45.612Z,52.83
2018-04-01T00:45:12.800Z,53.15
2018-04-01T00:47:39.954Z,52.97
2018-04-01T00:50:07.154Z,59.75
2018-04-01T00:52:34.322Z,56.80
2018-04-01T00:55:01.657Z,56.22
2018-04-01T00:57:28.837Z,50.17
2018-04-01T00:59:56.196Z,49.88
2018-04-01T01:02:24.136Z,41.22
2018-04-01T01:04:51.299Z,56.28
2018-04-01T01:07:18.558Z,43.42
2018-04-01T01:09:45.705Z,49.90
2018-04-01T01:12:13.673Z,57.03
2018-04-01T01:14:40.821Z,50.60
2018-04-01T01:17:07.975Z,53.15
2018-04-01T01:19:35.243Z,48.17
2018-04-01T01:22:02.481Z,53.78
2018-04-01T01:24:30.399Z,52.97
2018-04-01T01:26:57.567Z,47.62
2018-04-01T01:29:24.716Z,50.38
2018-04-01T01:31:51.890Z,55.30
2018-04-01T01:34:19.039Z,53.60
2018-04-01T01:36:46.889Z,55.70
2018-04-01T01:39:14.061Z,47.22
2018-04-01T01:41:41.313Z,47.40
2018-04-01T01:44:08.482Z,46.08
2018-04-01T01:46:35.690Z,48.50
2018-04-01T01:49:02.891Z,51.40
2018-04-01T01:51:30.147Z,46.80
2018-04-01T01:53:57.393Z,53.70
2018-04-01T01:56:24.641Z,53.13
2018-04-01T01:58:51.794Z,52.25
2018-04-01T02:01:18.932Z,58.78
2018-04-01T02:03:46.187Z,53.28
2018-04-01T02:06:13.329Z,62.45
2018-04-01T02:08:40.606Z,61.50
2018-04-01T02:11:07.842Z,64.15
2018-04-01T02:13:35.023Z,59.92
2018-04-01T02:16:02.946Z,64.95
2018-04-01T02:18:30.233Z,61.53
2018-04-01T02:20:57.410Z,61.60
2018-04-01T02:23:25.441Z,59.58
2018-04-01T02:25:52.581Z,61.33
2018-04-01T02:28:19.713Z,65.45
2018-04-01T02:30:46.920Z,65.55
2018-04-01T02:33:14.268Z,67.32
2018-04-01T02:35:41.504Z,69.47
2018-04-01T02:38:08.775Z,64.03
2018-04-01T02:40:36.028Z,63.42
2018-04-01T02:43:03.271Z,58.15
2018-04-01T02:45:30.467Z,63.87
2018-04-01T02:47:58.597Z,64.05
2018-04-01T02:50:25.746Z,61.92
2018-04-01T02:52:52.898Z,60.40
2018-04-01T02:55:20.075Z,63.22
2018-04-01T02:57:47.299Z,63.80
2018-04-01T03:00:14.449Z,60.47
2018-04-01T03:02:41.592Z,66.75
2018-04-01T03:05:08.774Z,66.43
2018-04-01T03:07:36.017Z,59.17
2018-04-01T03:10:03.260Z,63.87
2018-04-01T03:12:30.461Z,63.63
2018-04-01T03:14:58.395Z,58.25
2018-04-01T03:17:25.634Z,60.08
2018-04-01T03:19:52.988Z,68.07
2018-04-01T03:22:20.161Z,56.42
2018-04-01T03:24:47.345Z,54.90
2018-04-01T03:27:15.362Z,55.45
2018-04-01T03:29:42.551Z,53.70
2018-04-01T03:32:09.698Z,57.33
2018-04-01T03:34:37.022Z,56.67
2018-04-01T03:37:04.376Z,56.33
2018-04-01T03:39:31.730Z,55.20
2018-04-01T03:41:58.899Z,55.75
2018-04-01T03:44:26.167Z,54.00
2018-04-01T03:46:53.391Z,51.30
2018-04-01T03:49:20.539Z,46.53
2018-04-01T03:51:47.678Z,49.40
2018-04-01T03:54:14.870Z,54.03
2018-04-01T03:56:42.122Z,48.15
2018-04-01T03:59:09.269Z,52.60
2018-04-01T04:01:36.420Z,43.22
2018-04-01T04:04:03.566Z,47.15
2018-04-01T04:06:30.771Z,45.88
2018-04-01T04:08:57.940Z,36.13
2018-04-01T04:11:25.208Z,39.70
2018-04-01T04:13:52.353Z,44.03
2018-04-01T04:16:19.622Z,34.35
2018-04-01T04:18:46.976Z,42.53
2018-04-01T04:21:14.742Z,45.88
2018-04-01T04:23:42.694Z,40.55
2018-04-01T04:26:09.879Z,38.22
2018-04-01T04:28:37.118Z,36.53
2018-04-01T04:31:04.276Z,31.60
2018-04-01T04:33:31.552Z,32.38
2018-04-01T04:35:58.790Z,40.95
2018-04-01T05:00:26.715Z,37.45
2018-04-01T05:02:53.967Z,68.00
2018-04-01T05:05:21.199Z,33.25
2018-04-01T05:07:48.375Z,32.97
2018-04-01T05:10:15.621Z,28.17
2018-04-01T05:12:42.761Z,26.25
2018-04-01T05:15:09.939Z,36.03
2018-04-01T05:17:37.081Z,36.65
2018-04-01T05:20:04.284Z,31.50
2018-04-01T05:22:31.567Z,27.77
2018-04-01T05:24:58.817Z,33.67
2018-04-01T05:27:25.965Z,35.58
2018-04-01T05:29:53.150Z,29.52
2018-04-01T05:32:20.389Z,32.92
2018-04-01T05:34:47.641Z,28.87
2018-04-01T05:37:14.838Z,26.27
2018-04-01T05:39:42.043Z,31.30
2018-04-01T05:42:09.214Z,29.12
2018-04-01T05:44:36.437Z,28.90
2018-04-01T05:47:03.589Z,28.25
2018-04-01T05:49:30.942Z,31.05
2018-04-01T05:51:58.152Z,28.55
2018-04-01T05:54:25.334Z,33.67
2018-04-01T05:56:52.601Z,36.85
2018-04-01T05:59:19.957Z,23.42
2018-04-01T06:01:47.122Z,27.65
2018-04-01T06:04:14.379Z,30.60
2018-04-01T06:06:41.524Z,22.83
2018-04-01T06:09:08.682Z,28.65
2018-04-01T06:11:35.935Z,26.17
2018-04-01T06:14:03.195Z,25.58
2018-04-01T06:16:30.443Z,27.75
2018-04-01T06:18:57.616Z,23.75
2018-04-01T06:21:24.850Z,23.50
2018-04-01T06:23:52.009Z,20.90
2018-04-01T06:26:19.147Z,25.88
2018-04-01T06:28:46.385Z,24.23
2018-04-01T06:31:13.656Z,25.90
2018-04-01T06:33:40.900Z,24.85
2018-04-01T06:36:08.049Z,21.70
2018-04-01T06:38:35.305Z,20.85
2018-04-01T06:41:02.520Z,28.12
2018-04-01T06:43:29.721Z,26.45
2018-04-01T06:45:57.505Z,22.65
2018-04-01T06:48:25.456Z,20.70
2018-04-01T06:50:53.174Z,24.77
2018-04-01T06:53:20.761Z,21.50
2018-04-01T06:55:47.954Z,22.45
2018-04-01T06:58:16.282Z,25.63
2018-04-01T07:00:43.841Z,21.17
2018-04-01T07:03:11.540Z,19.40
2018-04-01T07:05:40.744Z,25.77
2018-04-01T07:08:08.500Z,19.73
2018-04-01T07:10:40.904Z,22.93
2018-04-01T07:13:09.207Z,22.47
2018-04-01T07:15:36.851Z,20.80
2018-04-01T07:18:04.771Z,18.90
2018-04-01T07:20:32.532Z,24.92
2018-04-01T07:22:59.910Z,21.17
2018-04-01T07:25:29.082Z,19.10
2018-04-01T07:27:56.579Z,21.40
2018-04-01T07:30:24.917Z,21.37
2018-04-01T07:32:52.322Z,17.97
2018-04-01T07:35:20.755Z,21.08
2018-04-01T07:37:48.376Z,22.90
2018-04-01T07:40:15.970Z,22.40
2018-04-01T07:42:43.848Z,18.80
2018-04-01T07:45:11.753Z,22.93
2018-04-01T07:47:39.189Z,23.40
2018-04-01T07:50:06.618Z,22.33
2018-04-01T07:52:34.138Z,22.30
2018-04-01T07:55:02.734Z,21.90
2018-04-01T07:57:31.054Z,20.43
2018-04-01T07:59:59.961Z,25.70
2018-04-01T08:02:27.701Z,23.37
2018-04-01T08:04:56.194Z,23.13
2018-04-01T08:07:24.774Z,25.00
2018-04-01T08:09:53.421Z,26.20
2018-04-01T08:12:21.287Z,23.60
2018-04-01T08:14:49.384Z,21.57
2018-04-01T08:17:16.658Z,20.17
2018-04-01T08:19:44.528Z,24.43
2018-04-01T08:22:13.176Z,21.13
2018-04-01T08:24:40.469Z,21.87
2018-04-01T08:27:09.251Z,24.00
2018-04-01T08:29:37.917Z,20.27
2018-04-01T08:32:05.378Z,20.80
2018-04-01T08:34:34.614Z,20.90
2018-04-01T08:37:03.299Z,21.70
2018-04-01T08:39:32.018Z,18.07
2018-04-01T08:41:59.546Z,24.53
2018-04-01T08:44:28.258Z,21.43
2018-04-01T08:46:56.193Z,17.93
2018-04-01T08:49:23.373Z,23.23
2018-04-01T08:51:51.110Z,19.30
2018-04-01T08:54:20.488Z,22.00
2018-04-01T08:56:48.712Z,25.33
2018-04-01T08:59:17.749Z,25.40
2018-04-01T09:01:45.064Z,20.77
2018-04-01T09:04:13.846Z,19.70
2018-04-01T09:06:42.404Z,19.03
2018-04-01T09:09:12.263Z,19.43
2018-04-01T09:11:41.230Z,19.00
2018-04-01T09:14:08.502Z,20.63
2018-04-01T09:16:35.774Z,18.37
2018-04-01T09:19:03.517Z,23.27
2018-04-01T09:21:30.920Z,21.10
2018-04-01T09:23:58.206Z,19.17
2018-04-01T09:26:26.231Z,22.03
2018-04-01T09:28:53.595Z,21.93
2018-04-01T09:31:20.822Z,21.90
2018-04-01T09:33:49.327Z,26.13
2018-04-01T09:36:17.598Z,23.20
2018-04-01T09:38:45.320Z,21.60
2018-04-01T09:41:12.568Z,16.73
2018-04-01T09:43:39.784Z,21.17
2018-04-01T09:46:16.605Z,20.77
2018-04-01T09:48:43.849Z,18.57
2018-04-01T09:51:11.033Z,14.83
2018-04-01T09:53:38.200Z,16.60
2018-04-01T09:56:08.018Z,17.20
2018-04-01T09:58:36.040Z,13.23
2018-04-01T10:01:03.980Z,14.50
2018-04-01T10:03:31.720Z,16.13
2018-04-01T10:05:59.466Z,14.63
2018-04-01T10:08:27.134Z,14.73
2018-04-01T10:10:54.977Z,17.17
2018-04-01T10:13:22.635Z,15.43
2018-04-01T10:15:50.408Z,15.00
2018-04-01T10:18:18.118Z,17.30
2018-04-01T10:20:45.787Z,14.97
2018-04-01T10:23:13.470Z,17.37
2018-04-01T10:25:41.096Z,16.60
2018-04-01T10:30:42.694Z,17.40
2018-04-01T10:33:10.410Z,14.57
2018-04-01T10:35:38.076Z,17.20
2018-04-01T10:38:05.925Z,17.83
2018-04-01T10:40:33.592Z,19.67
2018-04-01T10:43:01.278Z,21.23
2018-04-01T10:45:29.034Z,19.17
2018-04-01T10:47:56.693Z,17.50
2018-04-01T10:50:24.371Z,15.63
2018-04-01T10:52:52.019Z,14.43
2018-04-01T10:55:19.189Z,16.87
2018-04-01T10:57:46.336Z,16.07
2018-04-01T11:00:13.580Z,17.20
2018-04-01T11:02:40.822Z,16.33
2018-04-01T11:05:08.027Z,16.93
2018-04-01T11:07:35.166Z,16.30
2018-04-01T11:10:03.090Z,21.67
2018-04-01T11:12:30.243Z,19.30
2018-04-01T11:14:57.499Z,18.00
2018-04-01T11:17:24.847Z,20.60
2018-04-01T11:19:52.000Z,17.47
2018-04-01T11:22:19.215Z,16.80
2018-04-01T11:24:46.373Z,17.37
2018-04-01T11:27:13.512Z,18.93
2018-04-01T11:29:40.697Z,18.50
2018-04-01T11:32:07.844Z,16.67
2018-04-01T11:34:35.022Z,14.97
2018-04-01T11:37:02.171Z,15.00
2018-04-01T11:39:29.513Z,19.33
2018-04-01T11:41:56.869Z,15.77
2018-04-01T11:44:24.005Z,16.20
2018-04-01T11:46:51.157Z,17.57
2018-04-01T11:49:18.911Z,14.67
2018-04-01T11:51:49.550Z,16.43
2018-04-01T11:54:21.218Z,16.20
2018-04-01T11:56:49.400Z,16.50
2018-04-01T11:59:19.433Z,16.37
2018-04-01T12:01:49.231Z,15.70
2018-04-01T12:04:18.367Z,18.03
2018-04-01T12:06:45.715Z,16.83
2018-04-01T12:09:13.662Z,17.43
2018-04-01T12:11:41.520Z,16.87
2018-04-01T12:14:08.777Z,18.70
2018-04-01T12:16:36.533Z,18.00
2018-04-01T12:19:03.710Z,19.27
2018-04-01T12:21:30.895Z,18.83
2018-04-01T12:24:00.193Z,20.90
2018-04-01T12:26:28.130Z,22.13
2018-04-01T12:28:55.477Z,26.27
2018-04-01T12:31:23.548Z,28.27
2018-04-01T12:33:50.920Z,26.23
2018-04-01T12:36:18.138Z,28.70
2018-04-01T12:38:45.279Z,27.47
2018-04-01T12:41:12.424Z,28.50
2018-04-01T12:43:39.625Z,31.53
2018-04-01T12:46:06.900Z,31.10
2018-04-01T12:48:34.320Z,32.70
2018-04-01T12:51:01.778Z,27.83
2018-04-01T12:53:29.239Z,31.50
2018-04-01T12:55:57.515Z,40.80
2018-04-01T12:58:24.871Z,33.77
2018-04-01T13:00:52.144Z,34.00
2018-04-01T13:03:19.416Z,33.23
2018-04-01T13:05:46.843Z,40.37
2018-04-01T13:08:14.298Z,35.40
2018-04-01T13:10:41.461Z,39.37
2018-04-01T13:13:08.662Z,35.00
2018-04-01T13:15:35.854Z,30.47
2018-04-01T13:18:03.755Z,23.20
2018-04-01T13:20:31.381Z,28.20
2018-04-01T13:22:58.724Z,27.63
2018-04-01T13:25:25.995Z,26.47
2018-04-01T13:27:53.450Z,26.83
2018-04-01T13:30:20.626Z,21.90
2018-04-01T13:32:47.775Z,24.50
2018-04-01T13:35:15.063Z,24.60
2018-04-01T13:37:42.258Z,27.77
2018-04-01T13:40:09.610Z,27.20
2018-04-01T13:42:37.225Z,23.70
2018-04-01T13:45:05.575Z,23.70
2018-04-01T13:47:33.775Z,18.67
2018-04-01T13:50:03.241Z,20.07
2018-04-01T13:52:30.397Z,19.80
2018-04-01T13:54:57.576Z,20.10
2018-04-01T13:57:25.028Z,23.67
2018-04-01T13:59:52.893Z,19.23
2018-04-01T14:02:21.341Z,24.23
2018-04-01T14:04:49.006Z,18.70
2018-04-01T14:07:16.178Z,14.60
2018-04-01T14:09:43.379Z,17.60
2018-04-01T14:12:11.071Z,18.40
2018-04-01T14:14:38.742Z,16.57
2018-04-01T14:17:07.845Z,23.30
2018-04-01T14:19:35.711Z,20.17
2018-04-01T14:22:03.791Z,19.90
2018-04-01T14:24:31.438Z,17.10
2018-04-01T14:26:58.896Z,15.90
2018-04-01T14:29:26.776Z,17.00
2018-04-01T14:31:54.729Z,17.93
2018-04-01T14:34:22.694Z,17.60
2018-04-01T14:36:50.268Z,15.77
2018-04-01T14:39:18.530Z,14.40
2018-04-01T14:41:47.316Z,15.57
2018-04-01T14:44:21.893Z,16.73
2018-04-01T14:46:51.154Z,13.43
2018-04-01T14:49:32.706Z,15.00
2018-04-01T14:54:56.934Z,16.37
2018-04-01T15:00:23.927Z,14.97
2018-04-01T15:02:51.584Z,17.90
2018-04-01T15:05:22.253Z,19.67
2018-04-01T15:07:58.428Z,18.00
2018-04-01T15:10:28.137Z,15.03
2018-04-01T15:12:56.552Z,19.27
2018-04-01T15:15:27.381Z,22.37
2018-04-01T15:17:58.333Z,18.57
2018-04-01T15:20:32.806Z,19.10
2018-04-01T15:23:02.076Z,19.93
2018-04-01T15:25:29.838Z,20.60
2018-04-01T15:27:57.731Z,21.17
2018-04-01T15:30:24.976Z,18.40
2018-04-01T15:32:52.289Z,21.70
2018-04-01T15:35:19.982Z,21.63
2018-04-01T15:37:47.748Z,24.33
2018-04-01T15:40:15.305Z,21.10
2018-04-01T15:42:44.290Z,21.90
2018-04-01T15:45:11.859Z,24.17
2018-04-01T15:47:39.138Z,22.43
2018-04-01T15:50:06.878Z,21.07
2018-04-01T15:52:34.087Z,24.57
2018-04-01T15:55:02.054Z,23.20
2018-04-01T15:57:29.997Z,23.37
2018-04-01T15:59:57.251Z,24.37
2018-04-01T16:02:25.219Z,23.10
2018-04-01T16:04:52.364Z,22.20
2018-04-01T16:07:19.550Z,23.87
2018-04-01T16:09:47.455Z,23.00
2018-04-01T16:12:14.628Z,26.33
2018-04-01T16:14:41.878Z,25.53
2018-04-01T16:17:09.034Z,23.00
2018-04-01T16:19:36.219Z,24.50
2018-04-01T16:22:03.455Z,26.03
2018-04-01T16:24:30.603Z,22.13
2018-04-01T16:26:57.775Z,22.33
2018-04-01T16:29:25.009Z,24.30
2018-04-01T16:31:52.251Z,21.00
2018-04-01T16:34:19.503Z,25.80
2018-04-01T16:36:46.687Z,25.53
2018-04-01T16:39:13.923Z,21.93
2018-04-01T16:41:41.075Z,18.53
2018-04-01T16:44:08.253Z,21.00
2018-04-01T16:46:36.295Z,22.93
2018-04-01T16:49:03.435Z,25.63
2018-04-01T16:51:31.539Z,21.00
2018-04-01T16:53:59.677Z,24.87
2018-04-01T16:56:26.932Z,22.10
2018-04-01T16:58:54.117Z,22.00
2018-04-01T17:01:21.303Z,24.67
2018-04-01T17:03:48.487Z,21.03
2018-04-01T17:06:15.744Z,22.23
2018-04-01T17:08:42.946Z,23.60
2018-04-01T17:11:10.857Z,20.90
2018-04-01T17:13:37.990Z,25.03
2018-04-01T17:16:05.159Z,27.07
2018-04-01T17:18:32.332Z,24.63
2018-04-01T17:20:59.568Z,17.80
2018-04-01T17:23:26.733Z,18.13
2018-04-01T17:25:53.907Z,13.20
2018-04-01T17:28:21.053Z,19.00
2018-04-01T17:30:48.231Z,13.27
2018-04-01T17:33:15.404Z,11.70
2018-04-01T17:35:42.680Z,18.23
2018-04-01T17:38:11.495Z,16.93
2018-04-01T17:40:38.826Z,13.60
2018-04-01T17:43:05.979Z,13.70
2018-04-01T17:45:33.250Z,14.00
2018-04-01T17:48:00.484Z,11.93
2018-04-01T17:50:30.320Z,10.80
2018-04-01T17:52:57.463Z,11.40
2018-04-01T17:55:24.601Z,10.40
2018-04-01T17:57:51.858Z,11.63
2018-04-01T18:00:19.110Z,10.23
2018-04-01T18:02:46.277Z,11.90
2018-04-01T18:05:13.422Z,11.27
2018-04-01T18:07:40.570Z,10.70
2018-04-01T18:10:07.914Z,13.20
2018-04-01T18:12:35.171Z,11.47
2018-04-01T18:15:02.344Z,11.30
2018-04-01T18:17:31.468Z,9.53
2018-04-01T18:19:59.696Z,11.23
2018-04-01T18:22:26.962Z,9.70
2018-04-01T18:24:54.118Z,10.80
2018-04-01T18:27:21.377Z,12.23
2018-04-01T18:29:48.513Z,10.70
2018-04-01T18:32:16.573Z,11.77
2018-04-01T18:34:43.787Z,13.80
2018-04-01T18:37:11.799Z,13.53
2018-04-01T18:39:39.054Z,11.55
2018-04-01T18:42:06.398Z,13.97
2018-04-01T18:44:33.727Z,15.27
2018-04-01T18:47:01.611Z,11.17
2018-04-01T18:49:28.939Z,15.83
2018-04-01T18:51:57.238Z,12.07
2018-04-01T18:54:24.623Z,16.87
2018-04-01T18:56:52.107Z,14.43
2018-04-01T18:59:19.880Z,13.40
2018-04-01T19:01:47.874Z,15.43
2018-04-01T19:04:15.538Z,19.77
2018-04-01T19:06:43.915Z,16.37
2018-04-01T19:09:11.466Z,13.10
2018-04-01T19:11:39.558Z,16.97
2018-04-01T19:14:07.162Z,16.53
2018-04-01T19:16:34.956Z,15.77
2018-04-01T19:19:02.702Z,15.30
2018-04-01T19:21:30.549Z,18.17
2018-04-01T19:23:59.174Z,18.00
2018-04-01T19:26:27.349Z,16.85
2018-04-01T19:28:55.044Z,19.37
2018-04-01T19:31:23.742Z,21.50
2018-04-01T19:33:52.169Z,20.73
2018-04-01T19:36:20.239Z,26.33
2018-04-01T19:38:48.513Z,20.20
2018-04-01T19:41:17.213Z,21.52
2018-04-01T19:43:45.459Z,25.88
2018-04-01T19:46:14.041Z,22.55
2018-04-01T19:48:41.986Z,22.40
2018-04-01T19:51:12.505Z,24.70
2018-04-01T19:53:41.920Z,28.38
2018-04-01T19:56:13.298Z,24.58
2018-04-01T19:58:48.967Z,19.43
2018-04-01T20:01:17.333Z,22.00
2018-04-01T20:03:53.894Z,24.33
2018-04-01T20:06:22.416Z,19.87
2018-04-01T20:08:50.631Z,22.98
2018-04-01T20:11:19.854Z,21.87
2018-04-01T20:13:49.144Z,25.37
2018-04-01T20:16:17.228Z,24.85
2018-04-01T20:18:44.972Z,24.45
2018-04-01T20:21:12.667Z,33.03
2018-04-01T20:23:40.432Z,24.20
2018-04-01T20:26:08.197Z,29.17
2018-04-01T20:28:35.882Z,29.23
2018-04-01T20:31:04.340Z,37.10
2018-04-01T20:33:32.027Z,36.55
2018-04-01T20:35:59.714Z,33.28
2018-04-01T20:38:27.520Z,29.15
2018-04-01T20:40:55.241Z,27.80
2018-04-01T20:43:23.770Z,27.70
2018-04-01T20:45:51.514Z,30.48
2018-04-01T20:48:19.214Z,35.00
2018-04-01T20:50:46.889Z,36.78
2018-04-01T20:53:16.922Z,44.58
2018-04-01T20:55:47.474Z,40.08
2018-04-01T20:58:18.616Z,41.42
2018-04-01T21:00:48.909Z,33.85
2018-04-01T21:03:19.746Z,36.92
2018-04-01T21:05:50.904Z,43.30
2018-04-01T21:08:21.769Z,35.20
2018-04-01T21:10:52.280Z,36.90
2018-04-01T21:13:20.090Z,38.25
2018-04-01T21:15:47.770Z,44.33
2018-04-01T21:18:15.523Z,40.33
2018-04-01T21:20:43.244Z,35.25
2018-04-01T21:23:10.894Z,41.50
2018-04-01T21:25:38.586Z,49.33
2018-04-01T21:28:07.014Z,42.40
2018-04-01T21:30:34.689Z,46.92
2018-04-01T21:33:02.465Z,47.55
2018-04-01T21:35:30.225Z,46.63
2018-04-01T21:37:57.980Z,45.15
2018-04-01T21:40:26.696Z,42.15
2018-04-01T21:42:55.171Z,48.40
2018-04-01T21:45:22.813Z,53.25
2018-04-01T21:47:50.504Z,53.25
2018-04-01T21:50:18.663Z,55.28
2018-04-01T21:52:46.512Z,47.13
2018-04-01T21:55:14.281Z,55.60
2018-04-01T21:57:42.043Z,56.35
2018-04-01T22:00:09.729Z,52.75
2018-04-01T22:02:37.600Z,58.42
2018-04-01T22:05:05.956Z,60.58
2018-04-01T22:07:34.538Z,51.65
2018-04-01T22:10:02.322Z,57.70
2018-04-01T22:12:30.368Z,57.62
2018-04-01T22:14:58.145Z,59.05
2018-04-01T22:17:25.786Z,53.60
2018-04-01T22:19:53.441Z,52.90
2018-04-01T22:22:21.163Z,46.28
2018-04-01T22:24:49.589Z,52.97
2018-04-01T22:27:17.300Z,56.28
2018-04-01T22:29:45.778Z,66.15
2018-04-01T22:32:15.686Z,62.62
2018-04-01T22:34:43.459Z,61.63
2018-04-01T22:37:14.561Z,59.88
2018-04-01T22:39:42.271Z,64.80
2018-04-01T22:42:10.012Z,58.53
2018-04-01T22:44:37.779Z,59.85
2018-04-01T22:47:05.430Z,54.65
2018-04-01T22:49:33.120Z,58.80
2018-04-01T22:52:00.903Z,60.88
2018-04-01T22:54:28.636Z,57.50
2018-04-01T22:56:56.408Z,61.55
2018-04-01T22:59:24.190Z,60.65
2018-04-01T23:01:51.855Z,48.10
2018-04-01T23:04:19.593Z,50.05
2018-04-01T23:06:47.384Z,57.15
2018-04-01T23:09:15.025Z,51.10
2018-04-01T23:11:42.723Z,50.12
2018-04-01T23:14:14.494Z,48.90
2018-04-01T23:16:42.410Z,46.58
2018-04-01T23:19:12.150Z,44.80
2018-04-01T23:21:39.948Z,51.95
2018-04-01T23:24:08.421Z,49.80
2018-04-01T23:26:36.913Z,56.03
2018-04-01T23:29:06.063Z,48.58
2018-04-01T23:31:35.510Z,48.13
2018-04-01T23:34:05.485Z,61.75
2018-04-01T23:36:34.293Z,48.65
2018-04-01T23:39:02.086Z,48.35
2018-04-01T23:41:30.572Z,52.80
2018-04-01T23:43:58.391Z,50.50
2018-04-01T23:46:26.986Z,56.20
2018-04-01T23:48:56.368Z,49.42
2018-04-01T23:51:25.829Z,44.20
2018-04-01T23:53:54.362Z,48.67
2018-04-01T23:56:22.129Z,48.80
2018-04-01T23:58:50.884Z,47.25
